createdAt,value
2023-02-14T00:01:31.562Z,24.57
2023-02-14T00:04:37.511Z,21.50
2023-02-14T00:07:52.813Z,19.87
2023-02-14T00:10:57.873Z,20.37
2023-02-14T00:14:22.841Z,23.67
2023-02-14T00:17:43.834Z,24.57
2023-02-14T00:20:49.723Z,19.73
2023-02-14T00:23:55.533Z,23.12
2023-02-14T00:27:01.986Z,21.70
2023-02-14T00:30:10.006Z,21.85
2023-02-14T00:33:16.736Z,26.75
2023-02-14T00:36:24.200Z,26.48
2023-02-14T00:39:23.209Z,25.62
2023-02-14T00:42:29.480Z,28.12
2023-02-14T00:45:35.889Z,28.90
2023-02-14T00:48:41.601Z,29.92
2023-02-14T00:51:48.517Z,35.73
2023-02-14T00:54:54.745Z,30.85
2023-02-14T00:58:01.064Z,28.65
2023-02-14T01:01:07.238Z,31.45
2023-02-14T01:04:14.249Z,27.55
2023-02-14T01:07:20.329Z,25.85
2023-02-14T01:10:26.991Z,29.35
2023-02-14T01:13:32.383Z,23.42
2023-02-14T01:16:39.215Z,24.72
2023-02-14T01:19:47.547Z,27.75
2023-02-14T01:22:56.136Z,30.60
2023-02-14T01:26:01.260Z,26.52
2023-02-14T01:29:07.160Z,26.25
2023-02-14T01:32:13.153Z,31.97
2023-02-14T01:35:19.676Z,29.87
2023-02-14T01:38:26.488Z,28.42
2023-02-14T01:41:32.182Z,25.57
2023-02-14T01:44:54.845Z,27.20
2023-02-14T01:48:06.729Z,29.07
2023-02-14T01:51:12.439Z,25.80
2023-02-14T01:54:19.526Z,29.20
2023-02-14T01:57:19.015Z,30.17
2023-02-14T02:00:42.773Z,23.92
2023-02-14T02:03:53.471Z,28.07
2023-02-14T02:07:05.410Z,31.17
2023-02-14T02:10:14.696Z,24.97
2023-02-14T02:13:22.569Z,28.07
2023-02-14T02:16:42.579Z,29.95
2023-02-14T02:19:57.508Z,21.12
2023-02-14T02:23:36.600Z,32.78
2023-02-14T02:27:12.245Z,26.37
2023-02-14T02:30:59.252Z,30.92
2023-02-14T02:34:45.962Z,28.05
2023-02-14T02:38:10.832Z,27.32
2023-02-14T02:41:30.709Z,27.52
2023-02-14T02:44:57.367Z,27.10
2023-02-14T02:48:23.665Z,27.93
2023-02-14T02:52:05.962Z,31.95
2023-02-14T02:55:14.469Z,26.33
2023-02-14T02:58:21.087Z,28.98
2023-02-14T03:01:31.053Z,25.80
2023-02-14T03:04:54.763Z,20.05
2023-02-14T03:08:00.356Z,27.13
2023-02-14T03:11:07.508Z,24.92
2023-02-14T03:14:33.399Z,25.30
2023-02-14T03:17:57.061Z,24.57
2023-02-14T03:21:11.935Z,25.37
2023-02-14T03:24:36.743Z,23.15
2023-02-14T03:27:48.848Z,24.77
2023-02-14T03:31:05.798Z,28.05
2023-02-14T03:34:45.775Z,24.10
2023-02-14T03:37:59.414Z,24.18
2023-02-14T03:41:18.369Z,25.23
2023-02-14T03:44:25.256Z,24.10
2023-02-14T03:47:35.425Z,23.20
2023-02-14T03:50:41.456Z,24.10
2023-02-14T03:53:50.164Z,23.70
2023-02-14T03:57:31.449Z,24.50
2023-02-14T04:00:36.806Z,23.67
2023-02-14T04:03:42.653Z,25.88
2023-02-14T04:06:47.682Z,23.55
2023-02-14T04:09:53.536Z,26.00
2023-02-14T04:13:00.001Z,23.80
2023-02-14T04:16:06.568Z,22.82
2023-02-14T04:19:31.380Z,23.30
2023-02-14T04:22:37.249Z,24.70
2023-02-14T04:25:42.898Z,25.82
2023-02-14T04:28:50.034Z,22.70
2023-02-14T04:31:56.110Z,23.22
2023-02-14T04:35:02.763Z,22.17
2023-02-14T04:38:08.932Z,23.12
2023-02-14T04:41:14.800Z,22.73
2023-02-14T04:44:20.053Z,28.85
2023-02-14T04:47:24.844Z,23.47
2023-02-14T04:50:32.388Z,20.17
2023-02-14T04:53:37.238Z,22.65
2023-02-14T04:56:43.308Z,20.77
2023-02-14T04:59:48.655Z,20.77
2023-02-14T05:02:54.357Z,26.48
2023-02-14T05:05:59.782Z,24.75
2023-02-14T05:09:05.086Z,22.00
2023-02-14T05:12:11.218Z,20.02
2023-02-14T05:15:16.518Z,23.05
2023-02-14T05:18:22.457Z,24.55
2023-02-14T05:21:27.469Z,21.10
2023-02-14T05:24:33.117Z,21.75
2023-02-14T05:27:38.887Z,22.20
2023-02-14T05:30:44.864Z,24.98
2023-02-14T05:33:49.243Z,20.00
2023-02-14T05:36:56.023Z,20.62
2023-02-14T05:40:01.536Z,21.27
2023-02-14T05:43:03.577Z,19.55
2023-02-14T05:46:09.183Z,21.90
2023-02-14T05:49:15.151Z,18.02
2023-02-14T05:52:21.224Z,20.80
2023-02-14T05:55:25.572Z,17.70
2023-02-14T05:58:32.391Z,18.40
2023-02-14T06:01:38.317Z,22.32
2023-02-14T06:04:43.837Z,16.32
2023-02-14T06:07:52.635Z,18.37
2023-02-14T06:10:58.855Z,18.25
2023-02-14T06:14:04.596Z,15.53
2023-02-14T06:17:10.693Z,15.53
2023-02-14T06:20:18.329Z,19.15
2023-02-14T06:23:24.636Z,17.85
2023-02-14T06:26:32.755Z,15.38
2023-02-14T06:29:38.234Z,15.05
2023-02-14T06:32:43.925Z,16.70
2023-02-14T06:35:49.646Z,13.90
2023-02-14T06:38:48.328Z,16.00
2023-02-14T06:41:40.929Z,16.73
2023-02-14T06:44:45.794Z,17.77
2023-02-14T06:47:51.000Z,14.90
2023-02-14T06:50:50.571Z,15.18
2023-02-14T06:53:55.842Z,14.70
2023-02-14T06:57:00.777Z,14.43
2023-02-14T07:00:05.628Z,15.28
2023-02-14T07:03:11.847Z,13.18
2023-02-14T07:06:17.344Z,14.20
2023-02-14T07:09:24.466Z,12.15
2023-02-14T07:12:30.371Z,14.33
2023-02-14T07:15:35.842Z,14.80
2023-02-14T07:18:40.957Z,13.85
2023-02-14T07:21:38.712Z,14.07
2023-02-14T07:24:43.840Z,13.55
2023-02-14T07:27:50.776Z,13.70
2023-02-14T07:30:57.213Z,12.58
2023-02-14T07:34:02.229Z,14.55
2023-02-14T07:37:08.661Z,12.85
2023-02-14T07:40:15.275Z,12.60
2023-02-14T07:43:20.689Z,12.88
2023-02-14T07:46:26.786Z,14.85
2023-02-14T07:49:32.066Z,14.80
2023-02-14T07:52:36.965Z,9.80
2023-02-14T07:55:43.484Z,10.85
2023-02-14T07:58:49.111Z,9.08
2023-02-14T08:01:56.606Z,8.83
2023-02-14T08:05:02.260Z,9.03
2023-02-14T08:08:07.603Z,10.45
2023-02-14T08:11:12.794Z,7.75
2023-02-14T08:14:18.237Z,6.22
2023-02-14T08:17:23.403Z,5.55
2023-02-14T08:20:29.254Z,5.60
2023-02-14T08:23:34.870Z,5.80
2023-02-14T08:26:41.094Z,6.50
2023-02-14T08:29:47.437Z,4.62
2023-02-14T08:32:53.901Z,5.87
2023-02-14T08:36:01.305Z,4.35
2023-02-14T08:39:07.033Z,5.47
2023-02-14T08:42:11.695Z,5.65
2023-02-14T08:45:17.976Z,5.60
2023-02-14T08:48:25.782Z,6.37
2023-02-14T08:51:30.358Z,7.65
2023-02-14T08:54:36.867Z,5.72
2023-02-14T08:57:43.016Z,6.15
2023-02-14T09:00:48.442Z,7.35
2023-02-14T09:03:54.424Z,6.45
2023-02-14T09:06:54.900Z,7.67
2023-02-14T09:09:47.248Z,9.05
2023-02-14T09:12:57.279Z,13.70
2023-02-14T09:16:03.890Z,9.43
2023-02-14T09:19:10.808Z,16.35
2023-02-14T09:22:16.239Z,10.82
2023-02-14T09:25:23.078Z,12.43
2023-02-14T09:28:29.094Z,9.78
2023-02-14T09:31:38.003Z,9.70
2023-02-14T09:34:44.205Z,9.20
2023-02-14T09:38:01.651Z,9.98
2023-02-14T09:40:47.228Z,12.98
2023-02-14T09:43:59.203Z,12.07
2023-02-14T09:46:59.455Z,12.65
2023-02-14T09:50:05.778Z,15.23
2023-02-14T09:53:16.089Z,15.65
2023-02-14T09:57:00.305Z,19.05
2023-02-14T10:00:19.115Z,16.32
2023-02-14T10:03:58.632Z,16.97
2023-02-14T10:07:31.921Z,16.30
2023-02-14T10:10:46.668Z,18.90
2023-02-14T10:14:02.497Z,13.58
2023-02-14T10:17:12.528Z,14.60
2023-02-14T10:20:22.486Z,13.88
2023-02-14T10:23:47.534Z,12.25
2023-02-14T10:26:54.333Z,12.55
2023-02-14T10:30:00.471Z,8.75
2023-02-14T10:33:22.909Z,11.33
2023-02-14T10:36:42.428Z,10.53
2023-02-14T10:40:41.402Z,12.63
2023-02-14T10:44:14.947Z,12.35
2023-02-14T10:47:46.907Z,17.23
2023-02-14T10:51:09.583Z,17.80
2023-02-14T10:54:24.939Z,20.90
2023-02-14T10:57:34.329Z,25.17
2023-02-14T11:00:44.915Z,27.02
2023-02-14T11:03:52.550Z,27.02
2023-02-14T11:06:59.945Z,29.37
2023-02-14T11:10:06.643Z,39.40
2023-02-14T11:13:14.475Z,20.57
2023-02-14T11:16:24.964Z,22.40
2023-02-14T11:19:47.726Z,24.02
2023-02-14T11:22:54.006Z,16.70
2023-02-14T11:26:03.215Z,21.87
2023-02-14T11:29:15.312Z,19.10
2023-02-14T11:32:24.307Z,20.37
2023-02-14T11:35:36.433Z,24.10
2023-02-14T11:38:50.953Z,22.45
2023-02-14T11:42:05.656Z,22.73
2023-02-14T11:45:12.165Z,15.50
2023-02-14T11:48:39.654Z,17.98
2023-02-14T11:51:55.407Z,13.30
2023-02-14T11:55:02.678Z,16.10
2023-02-14T11:58:08.374Z,16.15
2023-02-14T12:01:14.682Z,12.95
2023-02-14T12:04:45.732Z,9.53
2023-02-14T12:07:53.122Z,14.18
2023-02-14T12:10:59.320Z,11.43
2023-02-14T12:14:13.998Z,8.35
2023-02-14T12:17:27.862Z,11.90
2023-02-14T12:20:55.478Z,5.97
2023-02-14T12:24:29.726Z,14.47
2023-02-14T12:28:10.781Z,6.05
2023-02-14T12:31:17.489Z,9.75
2023-02-14T12:34:19.271Z,7.97
2023-02-14T12:37:59.281Z,8.13
2023-02-14T12:41:16.917Z,10.10
2023-02-14T12:44:35.862Z,5.95
2023-02-14T12:48:05.403Z,11.60
2023-02-14T12:51:41.884Z,9.73
2023-02-14T12:55:27.776Z,6.08
2023-02-14T12:59:07.019Z,8.40
2023-02-14T13:02:22.413Z,6.28
2023-02-14T13:06:09.877Z,6.53
2023-02-14T13:09:27.782Z,5.53
2023-02-14T13:12:45.838Z,8.30
2023-02-14T13:16:08.930Z,8.30
2023-02-14T13:19:33.619Z,7.00
2023-02-14T13:22:40.786Z,7.30
2023-02-14T13:25:53.770Z,7.67
2023-02-14T13:29:09.483Z,8.08
2023-02-14T13:32:17.318Z,9.93
2023-02-14T13:35:16.952Z,6.85
2023-02-14T13:38:18.819Z,8.98
2023-02-14T13:41:17.726Z,6.90
2023-02-14T13:44:24.228Z,7.10
2023-02-14T13:47:39.191Z,12.23
2023-02-14T13:50:44.236Z,14.85
2023-02-14T13:54:00.355Z,9.63
2023-02-14T13:57:05.470Z,10.88
2023-02-14T14:00:29.096Z,10.98
2023-02-14T14:03:48.684Z,7.75
2023-02-14T14:07:22.909Z,7.28
2023-02-14T14:10:28.711Z,9.88
2023-02-14T14:13:57.867Z,9.73
2023-02-14T14:17:12.977Z,8.68
2023-02-14T14:20:36.648Z,8.23
2023-02-14T14:23:45.817Z,10.13
2023-02-14T14:26:57.406Z,7.92
2023-02-14T14:30:14.181Z,9.40
2023-02-14T14:33:37.686Z,8.13
2023-02-14T14:36:44.507Z,9.15
2023-02-14T14:39:50.482Z,6.67
2023-02-14T14:42:56.735Z,7.92
2023-02-14T14:45:56.895Z,5.92
2023-02-14T14:49:08.606Z,6.90
2023-02-14T14:52:14.359Z,7.33
2023-02-14T14:55:21.850Z,11.40
2023-02-14T14:58:48.953Z,9.83
2023-02-14T15:01:54.194Z,7.08
2023-02-14T15:04:59.274Z,5.12
2023-02-14T15:08:05.163Z,10.25
2023-02-14T15:11:50.046Z,10.65
2023-02-14T15:14:59.970Z,14.38
2023-02-14T15:18:06.099Z,8.73
2023-02-14T15:21:12.298Z,6.37
2023-02-14T15:24:11.329Z,7.83
2023-02-14T15:26:57.379Z,7.80
2023-02-14T15:30:02.875Z,6.42
2023-02-14T15:33:03.254Z,6.85
2023-02-14T15:36:09.865Z,6.85
2023-02-14T15:39:18.869Z,5.60
2023-02-14T15:42:56.264Z,5.83
2023-02-14T15:49:09.738Z,8.83
2023-02-14T15:52:16.961Z,7.72
2023-02-14T15:55:18.060Z,9.53
2023-02-14T15:58:32.221Z,9.70
2023-02-14T16:01:38.554Z,5.40
2023-02-14T16:04:48.821Z,6.60
2023-02-14T16:07:54.421Z,8.85
2023-02-14T16:11:01.258Z,7.37
2023-02-14T16:14:07.916Z,8.05
2023-02-14T16:17:25.941Z,9.60
2023-02-14T16:20:51.525Z,10.00
2023-02-14T16:23:57.936Z,10.18
2023-02-14T16:27:05.080Z,11.85
2023-02-14T16:30:10.764Z,11.00
2023-02-14T16:33:15.485Z,13.72
2023-02-14T16:36:37.735Z,12.00
2023-02-14T16:39:43.450Z,13.68
2023-02-14T16:42:48.976Z,10.58
2023-02-14T16:45:53.648Z,10.90
2023-02-14T16:49:00.329Z,9.80
2023-02-14T16:52:06.607Z,7.25
2023-02-14T16:55:12.105Z,7.12
2023-02-14T16:58:18.175Z,9.08
2023-02-14T17:01:24.822Z,7.55
2023-02-14T17:04:31.583Z,8.00
2023-02-14T17:07:37.732Z,4.92
2023-02-14T17:10:51.418Z,3.87
2023-02-14T17:13:58.047Z,8.70
2023-02-14T17:17:03.843Z,9.68
2023-02-14T17:20:09.199Z,8.28
2023-02-14T17:23:15.436Z,5.22
2023-02-14T17:26:21.445Z,7.65
2023-02-14T17:29:26.992Z,7.37
2023-02-14T17:32:32.308Z,7.58
2023-02-14T17:35:38.371Z,11.75
2023-02-14T17:38:44.599Z,11.63
2023-02-14T17:41:51.175Z,12.58
2023-02-14T17:44:57.165Z,11.75
2023-02-14T17:48:02.762Z,8.95
2023-02-14T17:51:08.433Z,11.10
2023-02-14T17:54:14.510Z,8.83
2023-02-14T17:57:20.313Z,9.23
2023-02-14T18:00:27.734Z,11.30
2023-02-14T18:03:33.092Z,11.65
2023-02-14T18:06:39.102Z,14.53
2023-02-14T18:09:45.837Z,17.27
2023-02-14T18:12:51.548Z,18.37
2023-02-14T18:15:57.524Z,19.73
2023-02-14T18:19:03.547Z,18.60
2023-02-14T18:22:09.583Z,20.50
2023-02-14T18:25:15.477Z,22.05
2023-02-14T18:28:22.156Z,19.67
2023-02-14T18:31:30.120Z,21.75
2023-02-14T18:34:34.852Z,26.10
2023-02-14T18:37:39.985Z,22.32
2023-02-14T18:40:45.569Z,30.95
2023-02-14T18:43:52.507Z,27.90
2023-02-14T18:46:59.166Z,25.97
2023-02-14T18:50:05.880Z,28.42
2023-02-14T18:53:12.878Z,29.55
2023-02-14T18:56:24.454Z,24.65
2023-02-14T19:02:33.574Z,30.37
2023-02-14T19:05:39.870Z,22.13
2023-02-14T19:08:50.768Z,25.08
2023-02-14T19:11:56.244Z,27.58
2023-02-14T19:15:03.237Z,22.10
2023-02-14T19:18:08.659Z,31.77
2023-02-14T19:21:30.526Z,26.20
2023-02-14T19:24:37.512Z,31.05
2023-02-14T19:27:44.414Z,24.90
2023-02-14T19:30:54.214Z,21.40
2023-02-14T19:34:00.558Z,29.67
2023-02-14T19:37:07.561Z,21.48
2023-02-14T19:40:13.814Z,21.90
2023-02-14T19:43:20.003Z,24.02
2023-02-14T19:46:27.565Z,19.82
2023-02-14T19:49:36.252Z,18.07
2023-02-14T19:52:41.976Z,13.95
2023-02-14T19:55:47.988Z,15.18
2023-02-14T19:58:55.266Z,22.73
2023-02-14T20:02:07.328Z,20.23
2023-02-14T20:05:13.288Z,20.90
2023-02-14T20:08:20.647Z,16.45
2023-02-14T20:11:50.275Z,25.60
2023-02-14T20:14:57.862Z,19.42
2023-02-14T20:17:57.475Z,20.72
2023-02-14T20:21:08.899Z,11.45
2023-02-14T20:24:17.054Z,10.48
2023-02-14T20:27:23.807Z,11.18
2023-02-14T20:30:30.150Z,7.58
2023-02-14T20:33:36.357Z,9.50
2023-02-14T20:36:42.826Z,13.83
2023-02-14T20:39:49.415Z,7.92
2023-02-14T20:42:56.109Z,9.90
2023-02-14T20:46:02.862Z,10.28
2023-02-14T20:49:10.587Z,6.28
2023-02-14T20:52:16.346Z,7.55
2023-02-14T20:55:21.611Z,7.80
2023-02-14T20:58:27.505Z,15.72
2023-02-14T21:01:34.886Z,9.98
2023-02-14T21:04:40.585Z,9.60
2023-02-14T21:07:40.912Z,5.83
2023-02-14T21:10:27.840Z,7.35
2023-02-14T21:13:21.104Z,7.78
2023-02-14T21:16:20.864Z,5.90
2023-02-14T21:19:13.702Z,4.85
2023-02-14T21:22:08.053Z,5.50
2023-02-14T21:25:14.823Z,4.97
2023-02-14T21:28:20.299Z,5.65
2023-02-14T21:31:29.035Z,3.35
2023-02-14T21:34:34.183Z,7.22
2023-02-14T21:37:39.278Z,4.75
2023-02-14T21:40:45.425Z,5.40
2023-02-14T21:43:54.388Z,16.82
2023-02-14T21:46:59.545Z,4.50
2023-02-14T21:50:22.908Z,4.87
2023-02-14T21:53:29.563Z,3.22
2023-02-14T21:56:34.765Z,9.10
2023-02-14T21:59:40.073Z,6.17
2023-02-14T22:02:46.833Z,6.45
2023-02-14T22:05:52.140Z,6.55
2023-02-14T22:08:57.325Z,8.18
2023-02-14T22:12:03.526Z,6.67
2023-02-14T22:15:09.748Z,6.85
2023-02-14T22:18:16.371Z,5.80
2023-02-14T22:21:27.107Z,3.20
2023-02-14T22:24:33.622Z,5.30
2023-02-14T22:27:32.792Z,6.70
2023-02-14T22:30:33.488Z,3.83
2023-02-14T22:33:39.066Z,4.37
2023-02-14T22:36:44.491Z,3.42
2023-02-14T22:39:49.381Z,5.10
2023-02-14T22:42:55.870Z,6.53
2023-02-14T22:46:02.173Z,3.22
2023-02-14T22:49:09.092Z,4.60
2023-02-14T22:52:08.616Z,5.97
2023-02-14T22:55:15.081Z,4.80
2023-02-14T22:58:21.060Z,5.35
2023-02-14T23:01:31.982Z,2.30
2023-02-14T23:04:37.849Z,6.20
2023-02-14T23:07:43.463Z,4.58
2023-02-14T23:10:48.582Z,2.98
2023-02-14T23:14:12.333Z,7.58
2023-02-14T23:17:35.660Z,4.70
2023-02-14T23:20:59.564Z,3.47
2023-02-14T23:24:05.583Z,4.97
2023-02-14T23:27:10.761Z,4.37
2023-02-14T23:30:16.701Z,2.30
2023-02-14T23:33:22.383Z,3.92
2023-02-14T23:36:28.260Z,4.30
2023-02-14T23:39:33.430Z,4.00
2023-02-14T23:42:39.193Z,2.92
2023-02-14T23:45:45.858Z,3.40
2023-02-14T23:48:53.308Z,5.47
2023-02-14T23:51:59.517Z,4.85
2023-02-14T23:55:05.192Z,3.08
2023-02-14T23:58:10.751Z,3.50
